createdAt,value
2023-01-30T00:00:13.133Z,43.92
2023-01-30T00:04:17.364Z,37.90
2023-01-30T00:08:20.941Z,40.05
2023-01-30T00:12:25.270Z,43.08
2023-01-30T00:16:28.259Z,43.50
2023-01-30T00:20:31.440Z,44.30
2023-01-30T00:24:34.263Z,46.70
2023-01-30T00:28:39.541Z,45.83
2023-01-30T00:32:42.364Z,47.50
2023-01-30T00:36:47.720Z,42.65
2023-01-30T00:40:52.525Z,41.55
2023-01-30T00:45:14.550Z,43.58
2023-01-30T00:49:17.675Z,45.97
2023-01-30T00:53:20.488Z,45.03
2023-01-30T00:57:23.657Z,44.50
2023-01-30T01:01:27.983Z,40.80
2023-01-30T01:05:30.809Z,40.95
2023-01-30T01:09:33.603Z,45.33
2023-01-30T01:13:36.596Z,42.17
2023-01-30T01:17:41.637Z,40.40
2023-01-30T01:21:44.420Z,41.95
2023-01-30T01:25:47.217Z,47.25
2023-01-30T01:29:50.066Z,45.55
2023-01-30T01:33:54.243Z,40.28
2023-01-30T01:37:57.922Z,47.45
2023-01-30T01:42:00.777Z,44.63
2023-01-30T01:46:09.201Z,43.17
2023-01-30T01:50:16.097Z,47.25
2023-01-30T01:54:24.513Z,47.55
2023-01-30T01:58:30.911Z,47.92
2023-01-30T02:02:35.503Z,45.13
2023-01-30T02:06:41.234Z,47.08
2023-01-30T02:14:54.177Z,46.53
2023-01-30T02:18:57.198Z,43.75
2023-01-30T02:23:50.680Z,50.13
2023-01-30T02:28:24.657Z,49.50
2023-01-30T02:32:35.971Z,44.30
2023-01-30T02:36:47.352Z,44.45
2023-01-30T02:40:57.236Z,43.80
2023-01-30T02:45:06.426Z,47.90
2023-01-30T02:49:15.564Z,47.38
2023-01-30T02:53:18.500Z,48.72
2023-01-30T02:57:23.312Z,45.67
2023-01-30T03:02:13.527Z,46.22
2023-01-30T03:06:43.643Z,45.08
2023-01-30T03:10:53.363Z,49.08
2023-01-30T03:15:01.475Z,50.85
2023-01-30T03:19:10.764Z,46.40
2023-01-30T03:23:15.286Z,47.28
2023-01-30T03:27:18.972Z,47.42
2023-01-30T03:31:23.418Z,50.15
2023-01-30T03:35:26.955Z,44.80
2023-01-30T03:39:31.335Z,44.90
2023-01-30T03:43:34.381Z,43.45
2023-01-30T03:47:39.469Z,49.55
2023-01-30T03:51:42.981Z,48.22
2023-01-30T03:55:47.305Z,41.90
2023-01-30T03:59:50.194Z,40.38
2023-01-30T04:03:53.178Z,44.45
2023-01-30T04:07:57.855Z,41.03
2023-01-30T04:12:02.059Z,43.45
2023-01-30T04:16:21.122Z,49.95
2023-01-30T04:20:43.951Z,38.08
2023-01-30T04:24:47.951Z,37.20
2023-01-30T04:28:52.834Z,39.50
2023-01-30T04:32:55.733Z,36.70
2023-01-30T04:36:58.725Z,40.25
2023-01-30T04:41:02.252Z,42.00
2023-01-30T04:45:10.455Z,37.10
2023-01-30T04:49:13.447Z,30.30
2023-01-30T04:53:17.135Z,38.30
2023-01-30T04:57:19.924Z,37.63
2023-01-30T05:01:26.805Z,41.55
2023-01-30T05:05:29.774Z,43.13
2023-01-30T05:09:32.631Z,34.17
2023-01-30T05:13:35.575Z,39.35
2023-01-30T05:17:39.790Z,36.90
2023-01-30T05:21:45.212Z,28.75
2023-01-30T05:25:47.990Z,39.33
2023-01-30T05:29:50.957Z,39.20
2023-01-30T05:33:55.195Z,42.28
2023-01-30T05:37:59.434Z,43.28
2023-01-30T05:42:02.341Z,32.00
2023-01-30T05:46:07.317Z,37.33
2023-01-30T05:50:12.760Z,39.73
2023-01-30T05:54:15.574Z,31.55
2023-01-30T05:58:18.358Z,40.80
2023-01-30T06:02:21.140Z,38.17
2023-01-30T06:06:26.116Z,36.65
2023-01-30T06:10:28.902Z,42.53
2023-01-30T06:14:31.596Z,35.67
2023-01-30T06:18:34.390Z,34.55
2023-01-30T06:22:38.613Z,29.88
2023-01-30T06:26:41.552Z,37.45
2023-01-30T06:30:45.007Z,26.70
2023-01-30T06:34:47.840Z,32.97
2023-01-30T06:38:51.958Z,26.65
2023-01-30T06:42:54.693Z,34.28
2023-01-30T06:46:57.522Z,27.90
2023-01-30T06:51:00.297Z,27.90
2023-01-30T06:55:04.735Z,29.02
2023-01-30T06:59:07.552Z,47.35
2023-01-30T07:03:12.453Z,28.83
2023-01-30T07:07:15.254Z,25.90
2023-01-30T07:11:19.753Z,25.35
2023-01-30T07:15:22.593Z,24.25
2023-01-30T07:19:25.295Z,25.02
2023-01-30T07:23:28.081Z,24.33
2023-01-30T07:27:32.234Z,19.65
2023-01-30T07:31:35.001Z,25.08
2023-01-30T07:35:39.036Z,35.85
2023-01-30T07:39:42.133Z,29.73
2023-01-30T07:43:46.298Z,35.17
2023-01-30T07:47:49.099Z,26.92
2023-01-30T07:51:51.931Z,32.92
2023-01-30T07:55:54.793Z,28.25
2023-01-30T07:59:58.963Z,23.85
2023-01-30T08:04:01.746Z,23.65
2023-01-30T08:08:04.710Z,22.05
2023-01-30T08:12:07.618Z,20.75
2023-01-30T08:16:11.935Z,24.33
2023-01-30T08:20:16.963Z,27.77
2023-01-30T08:24:20.407Z,23.65
2023-01-30T08:28:23.275Z,23.58
2023-01-30T08:32:29.581Z,22.60
2023-01-30T08:36:32.538Z,24.23
2023-01-30T08:41:01.093Z,22.50
2023-01-30T08:45:04.394Z,32.65
2023-01-30T08:49:08.580Z,28.08
2023-01-30T08:53:11.322Z,28.52
2023-01-30T08:57:15.634Z,24.67
2023-01-30T09:01:18.636Z,25.08
2023-01-30T09:05:23.266Z,23.52
2023-01-30T09:09:26.081Z,19.17
2023-01-30T09:13:29.966Z,24.30
2023-01-30T09:17:32.721Z,25.67
2023-01-30T09:21:38.906Z,26.38
2023-01-30T09:25:41.827Z,25.27
2023-01-30T09:29:45.522Z,22.13
2023-01-30T09:33:48.391Z,21.05
2023-01-30T09:37:54.123Z,21.35
2023-01-30T09:42:26.500Z,23.55
2023-01-30T09:46:39.453Z,18.17
2023-01-30T09:51:06.529Z,20.33
2023-01-30T09:55:18.558Z,16.92
2023-01-30T09:59:26.212Z,19.40
2023-01-30T10:03:35.915Z,18.60
2023-01-30T10:07:55.863Z,19.80
2023-01-30T10:12:15.564Z,16.65
2023-01-30T10:16:22.312Z,14.38
2023-01-30T10:20:35.525Z,12.27
2023-01-30T10:24:48.001Z,11.48
2023-01-30T10:29:06.540Z,12.93
2023-01-30T10:33:19.647Z,10.32
2023-01-30T10:37:27.587Z,12.18
2023-01-30T10:41:34.101Z,13.93
2023-01-30T10:45:44.575Z,10.15
2023-01-30T10:49:52.850Z,9.43
2023-01-30T10:54:01.060Z,9.18
2023-01-30T10:58:10.937Z,8.93
2023-01-30T11:02:25.577Z,8.68
2023-01-30T11:06:28.609Z,8.55
2023-01-30T11:10:32.400Z,8.90
2023-01-30T11:14:53.517Z,11.43
2023-01-30T11:23:26.264Z,12.10
2023-01-30T11:27:31.849Z,11.68
2023-01-30T11:31:41.413Z,10.53
2023-01-30T11:35:54.668Z,11.00
2023-01-30T11:39:57.555Z,11.98
2023-01-30T11:44:05.996Z,10.70
2023-01-30T11:48:31.526Z,12.90
2023-01-30T11:52:39.159Z,13.35
2023-01-30T11:56:47.703Z,8.88
2023-01-30T12:00:50.552Z,12.57
2023-01-30T12:04:57.079Z,10.65
2023-01-30T12:09:01.509Z,11.77
2023-01-30T12:13:22.694Z,10.77
2023-01-30T12:17:34.674Z,13.20
2023-01-30T12:21:46.852Z,9.25
2023-01-30T12:25:59.614Z,18.00
2023-01-30T12:30:06.661Z,14.77
2023-01-30T12:34:10.626Z,12.15
2023-01-30T12:38:27.104Z,10.32
2023-01-30T12:47:06.946Z,8.93
2023-01-30T12:51:19.561Z,8.30
2023-01-30T12:55:33.106Z,9.18
2023-01-30T12:59:48.999Z,8.82
2023-01-30T13:03:57.767Z,11.05
2023-01-30T13:08:27.093Z,10.23
2023-01-30T13:12:37.407Z,9.23
2023-01-30T13:16:54.340Z,8.70
2023-01-30T13:21:03.019Z,10.32
2023-01-30T13:25:19.638Z,10.15
2023-01-30T13:33:37.287Z,7.68
2023-01-30T13:37:40.323Z,7.38
2023-01-30T13:41:47.895Z,6.15
2023-01-30T13:45:52.872Z,9.48
2023-01-30T13:50:10.836Z,8.68
2023-01-30T13:54:38.373Z,8.27
2023-01-30T13:58:48.317Z,15.02
2023-01-30T14:03:26.143Z,10.40
2023-01-30T14:07:32.994Z,16.25
2023-01-30T14:11:39.287Z,11.00
2023-01-30T14:19:56.960Z,7.13
2023-01-30T14:24:03.081Z,6.78
2023-01-30T14:28:45.441Z,7.03
2023-01-30T14:32:56.502Z,7.10
2023-01-30T14:36:59.287Z,8.00
2023-01-30T14:41:27.360Z,7.55
2023-01-30T14:45:48.038Z,7.15
2023-01-30T14:49:51.609Z,7.38
2023-01-30T14:53:58.358Z,8.07
2023-01-30T14:58:04.953Z,6.47
2023-01-30T15:02:22.330Z,9.98
2023-01-30T15:06:26.222Z,9.50
2023-01-30T15:10:52.990Z,9.07
2023-01-30T15:19:23.357Z,8.15
2023-01-30T15:23:41.302Z,9.02
2023-01-30T15:27:57.266Z,10.57
2023-01-30T15:32:03.352Z,13.57
2023-01-30T15:36:19.570Z,11.48
2023-01-30T15:40:25.228Z,13.02
2023-01-30T15:44:40.508Z,12.43
2023-01-30T15:49:07.489Z,9.55
2023-01-30T15:53:14.512Z,10.93
2023-01-30T15:57:23.118Z,13.10
2023-01-30T16:01:26.350Z,12.60
2023-01-30T16:05:33.692Z,10.10
2023-01-30T16:09:37.622Z,10.85
2023-01-30T16:13:40.401Z,13.50
2023-01-30T16:17:46.107Z,10.52
2023-01-30T16:21:50.688Z,12.20
2023-01-30T16:25:54.657Z,9.48
2023-01-30T16:30:01.460Z,10.93
2023-01-30T16:34:04.820Z,11.98
2023-01-30T16:38:35.060Z,13.05
2023-01-30T16:42:38.091Z,14.13
2023-01-30T16:46:50.296Z,11.15
2023-01-30T16:51:12.964Z,14.35
2023-01-30T16:55:23.531Z,13.13
2023-01-30T16:59:31.310Z,14.43
2023-01-30T17:03:36.920Z,28.25
2023-01-30T17:07:39.789Z,14.07
2023-01-30T17:11:44.064Z,14.48
2023-01-30T17:15:47.083Z,12.80
2023-01-30T17:19:49.879Z,15.43
2023-01-30T17:23:55.671Z,10.48
2023-01-30T17:28:00.422Z,13.75
2023-01-30T17:32:10.503Z,13.40
2023-01-30T17:36:21.856Z,12.90
2023-01-30T17:40:34.561Z,14.32
2023-01-30T17:44:38.773Z,14.88
2023-01-30T17:48:41.711Z,12.90
2023-01-30T17:52:44.496Z,12.88
2023-01-30T17:56:49.529Z,11.90
2023-01-30T18:00:53.874Z,12.68
2023-01-30T18:04:56.685Z,17.45
2023-01-30T18:08:59.480Z,85.10
2023-01-30T18:13:02.234Z,25.77
2023-01-30T18:17:06.404Z,25.60
2023-01-30T18:21:09.214Z,41.75
2023-01-30T18:25:13.880Z,17.50
2023-01-30T18:29:16.713Z,12.73
2023-01-30T18:33:20.848Z,12.35
2023-01-30T18:37:23.601Z,13.68
2023-01-30T18:41:26.720Z,8.80
2023-01-30T18:45:29.496Z,9.00
2023-01-30T18:49:33.610Z,10.63
2023-01-30T18:53:37.066Z,10.43
2023-01-30T18:57:39.863Z,8.65
2023-01-30T19:01:43.315Z,10.35
2023-01-30T19:05:47.579Z,12.52
2023-01-30T19:09:50.384Z,27.88
2023-01-30T19:13:53.453Z,13.75
2023-01-30T19:17:57.833Z,10.13
2023-01-30T19:22:02.009Z,8.27
2023-01-30T19:26:05.200Z,9.90
2023-01-30T19:30:09.580Z,8.50
2023-01-30T19:34:12.556Z,11.75
2023-01-30T19:38:17.109Z,9.07
2023-01-30T19:42:19.839Z,12.73
2023-01-30T19:46:23.199Z,12.73
2023-01-30T19:50:26.020Z,8.70
2023-01-30T19:54:31.224Z,5.40
2023-01-30T19:58:35.156Z,9.77
2023-01-30T20:02:38.286Z,7.57
2023-01-30T20:06:44.370Z,8.52
2023-01-30T20:10:48.576Z,15.13
2023-01-30T20:14:51.362Z,9.63
2023-01-30T20:18:59.040Z,9.30
2023-01-30T20:23:01.956Z,7.97
2023-01-30T20:27:06.137Z,11.15
2023-01-30T20:31:10.712Z,10.10
2023-01-30T20:35:13.540Z,8.13
2023-01-30T20:39:16.941Z,8.18
2023-01-30T20:43:21.113Z,7.18
2023-01-30T20:47:23.897Z,8.57
2023-01-30T20:51:28.641Z,7.95
2023-01-30T20:55:31.406Z,10.25
2023-01-30T20:59:35.907Z,7.45
2023-01-30T21:03:39.610Z,8.45
2023-01-30T21:07:42.405Z,7.47
2023-01-30T21:11:45.524Z,9.82
2023-01-30T21:15:49.708Z,8.57
2023-01-30T21:19:52.432Z,9.13
2023-01-30T21:23:57.213Z,9.00
2023-01-30T21:28:00.413Z,12.95
2023-01-30T21:32:04.616Z,6.53
2023-01-30T21:36:08.559Z,8.30
2023-01-30T21:40:30.383Z,7.25
2023-01-30T21:44:37.098Z,7.70
2023-01-30T21:48:41.239Z,8.15
2023-01-30T21:52:44.066Z,12.23
2023-01-30T21:56:47.032Z,8.18
2023-01-30T22:00:49.812Z,11.15
2023-01-30T22:04:53.913Z,8.68
2023-01-30T22:08:57.107Z,7.45
2023-01-30T22:12:59.865Z,8.85
2023-01-30T22:17:02.788Z,9.45
2023-01-30T22:21:10.814Z,11.68
2023-01-30T22:25:13.603Z,6.22
2023-01-30T22:29:18.024Z,14.88
2023-01-30T22:33:20.774Z,6.90
2023-01-30T22:37:24.914Z,8.65
2023-01-30T22:41:28.825Z,9.07
2023-01-30T22:45:31.550Z,11.77
2023-01-30T22:49:34.328Z,6.88
2023-01-30T22:53:39.752Z,11.73
2023-01-30T22:57:42.546Z,9.30
2023-01-30T23:01:46.976Z,9.45
2023-01-30T23:05:58.185Z,8.38
2023-01-30T23:10:02.367Z,11.23
2023-01-30T23:14:09.885Z,8.38
2023-01-30T23:18:30.219Z,8.35
2023-01-30T23:22:33.015Z,5.85
2023-01-30T23:26:39.238Z,8.43
2023-01-30T23:30:42.069Z,8.98
2023-01-30T23:34:45.152Z,8.75
2023-01-30T23:38:49.196Z,12.10
2023-01-30T23:42:53.328Z,12.10
2023-01-30T23:46:56.146Z,8.70
2023-01-30T23:51:03.117Z,8.50
2023-01-30T23:55:06.672Z,10.80
2023-01-30T23:59:11.363Z,11.35
